Orbital elements of COSMOS 1275 DEB
| Launched | 3 June 1981 |
| Flight ended | – |
| Launch site | Plesetsk Missile and Space Complex, Russia |
| Owner | Commonwealth of Independent States (former USSR) |
| NORAD ID | 39943 |
| Date fetched |
Epoch osculation |
Inc. [°] |
Ecc. | RA asc node [hr] |
Arg Peri. [°] |
Mean anom [°] |
Mean motion [rev/day] |
Abs. mag |
| Date fetched |
Epoch osculation |
Inc. [°] |
Ecc. | RA asc node [hr] |
Arg Peri. [°] |
Mean anom [°] |
Mean motion [rev/day] |
Abs. mag |
| 2026 May 08 17:57 | 2026 May 03 13:36:01 | 83.0642 | 0.01518 | 15.6669 | 152.0428 | 227.9183 | 13.62410 | – |
| 2026 May 07 17:58 | 2026 May 03 13:36:01 | 83.0642 | 0.01518 | 15.6669 | 152.0428 | 227.9183 | 13.62410 | – |
| 2026 May 06 17:57 | 2026 May 03 13:36:01 | 83.0642 | 0.01518 | 15.6669 | 152.0428 | 227.9183 | 13.62410 | – |
| 2026 May 05 17:57 | 2026 May 03 13:36:01 | 83.0642 | 0.01518 | 15.6669 | 152.0428 | 227.9183 | 13.62410 | – |
| 2026 May 04 17:57 | 2026 Apr 29 18:35:47 | 83.0637 | 0.01516 | 15.8471 | 162.2615 | 227.9183 | 13.62410 | – |
| 2026 May 03 17:57 | 2026 Apr 29 18:35:47 | 83.0637 | 0.01516 | 15.8471 | 162.2615 | 227.9183 | 13.62410 | – |
| 2026 May 02 17:57 | 2026 Apr 29 18:35:47 | 83.0637 | 0.01516 | 15.8471 | 162.2615 | 227.9183 | 13.62410 | – |
| 2026 May 01 17:56 | 2026 Apr 29 18:35:47 | 83.0637 | 0.01516 | 15.8471 | 162.2615 | 227.9183 | 13.62410 | – |
| 2026 Apr 30 17:56 | 2026 Apr 29 18:35:47 | 83.0637 | 0.01516 | 15.8471 | 162.2615 | 227.9183 | 13.62410 | – |
| 2026 Apr 29 17:57 | 2026 Apr 24 07:33:47 | 83.0635 | 0.01512 | 16.1066 | 176.9888 | 227.9183 | 13.62410 | – |
| 2026 Apr 28 17:56 | 2026 Apr 24 07:33:47 | 83.0635 | 0.01512 | 16.1066 | 176.9888 | 227.9183 | 13.62410 | – |
| 2026 Apr 27 17:58 | 2026 Apr 24 07:33:47 | 83.0635 | 0.01512 | 16.1066 | 176.9888 | 227.9183 | 13.62410 | – |
| 2026 Apr 26 17:58 | 2026 Apr 24 07:33:47 | 83.0635 | 0.01512 | 16.1066 | 176.9888 | 227.9183 | 13.62410 | – |
| 2026 Apr 25 17:58 | 2026 Apr 24 07:33:47 | 83.0635 | 0.01512 | 16.1066 | 176.9888 | 227.9183 | 13.62410 | – |
| 2026 Apr 24 17:59 | 2026 Apr 24 07:33:47 | 83.0635 | 0.01512 | 16.1066 | 176.9888 | 227.9183 | 13.62410 | – |
| 2026 Apr 23 17:57 | 2026 Apr 18 15:47:52 | 83.0629 | 0.01506 | 16.3755 | 192.3193 | 227.9183 | 13.62410 | – |
| 2026 Apr 22 17:57 | 2026 Apr 18 15:47:52 | 83.0629 | 0.01506 | 16.3755 | 192.3193 | 227.9183 | 13.62410 | – |
| 2026 Apr 21 17:57 | 2026 Apr 18 15:47:52 | 83.0629 | 0.01506 | 16.3755 | 192.3193 | 227.9183 | 13.62410 | – |
| 2026 Apr 20 17:57 | 2026 Apr 18 15:47:52 | 83.0629 | 0.01506 | 16.3755 | 192.3193 | 227.9183 | 13.62410 | – |
| 2026 Apr 19 17:58 | 2026 Apr 18 15:47:52 | 83.0629 | 0.01506 | 16.3755 | 192.3193 | 227.9183 | 13.62410 | – |
| 2026 Apr 18 17:56 | 2026 Apr 13 04:22:45 | 83.0624 | 0.01500 | 16.6358 | 207.2329 | 227.9183 | 13.62410 | – |
| 2026 Apr 16 17:57 | 2026 Apr 13 04:22:45 | 83.0624 | 0.01500 | 16.6358 | 207.2329 | 227.9183 | 13.62410 | – |
| 2026 Apr 14 17:57 | 2026 Apr 13 04:22:45 | 83.0624 | 0.01500 | 16.6358 | 207.2329 | 227.9183 | 13.62410 | – |
| 2026 Apr 13 17:57 | 2026 Apr 13 04:22:45 | 83.0624 | 0.01500 | 16.6358 | 207.2329 | 227.9183 | 13.62410 | – |
| 2026 Apr 12 17:57 | 2026 Apr 08 16:03:39 | 83.0618 | 0.01495 | 16.8504 | 219.5775 | 227.9183 | 13.62410 | – |
| 2026 Apr 11 17:57 | 2026 Apr 08 16:03:39 | 83.0618 | 0.01495 | 16.8504 | 219.5775 | 227.9183 | 13.62410 | – |